Time;durP1;ratioP1;P1;durP2;ratioP2;P2;SDS_P1;SDS_P2;PMS_P1;PMS_P2;Temp;Humidity;BMP_temperature;BMP_pressure;BME280_temperature;BME280_humidity;BME280_pressure;Samples;Min_cycle;Max_cycle;Signal;HPM_P1;HPM_P2
2021/12/08 00:02:45;;;;;;;48.20;25.83;;;51.40;2227.20;;;;;;5031867;28;20033;-72
2021/12/08 00:05:12;;;;;;;51.97;26.63;;;51.40;2227.20;;;;;;5000098;28;20130;-71
2021/12/08 00:07:38;;;;;;;48.13;24.90;;;51.40;2227.20;;;;;;5027485;28;20500;-71
2021/12/08 00:15:39;;;;;;;44.80;24.98;;;51.40;2227.20;;;;;;5012338;28;20033;-71
2021/12/08 00:18:09;;;;;;;47.75;24.38;;;51.40;2227.20;;;;;;5010622;28;20026;-71
2021/12/08 00:20:36;;;;;;;44.92;25.95;;;51.40;2227.20;;;;;;5009807;28;20026;-71
2021/12/08 00:23:04;;;;;;;44.97;26.40;;;51.30;2227.20;;;;;;5026735;28;20128;-71
2021/12/08 00:25:30;;;;;;;39.17;23.40;;;51.30;2227.20;;;;;;5011374;28;20023;-71
2021/12/08 00:27:57;;;;;;;45.78;24.73;;;51.30;2227.20;;;;;;5022663;28;20022;-71
2021/12/08 00:30:23;;;;;;;45.63;26.42;;;51.20;2227.20;;;;;;5010889;28;20495;-71
2021/12/08 00:32:51;;;;;;;47.22;26.02;;;51.20;2227.20;;;;;;5010167;28;20030;-71
2021/12/08 00:35:17;;;;;;;45.40;25.98;;;51.20;2227.20;;;;;;5010728;28;20258;-71
2021/12/08 00:37:43;;;;;;;47.63;26.40;;;26.50;2201.60;;;;;;5026992;28;20030;-71
2021/12/08 00:40:15;;;;;;;48.25;25.42;;;26.50;2201.60;;;;;;5010038;28;20036;-72
2021/12/08 00:42:42;;;;;;;42.80;24.40;;;26.50;2201.60;;;;;;5011571;28;20045;-71
2021/12/08 00:45:11;;;;;;;48.03;27.38;;;26.50;2201.60;;;;;;5023346;28;20048;-72
2021/12/08 00:47:37;;;;;;;43.70;25.48;;;26.50;2201.60;;;;;;5031266;28;20029;-72
2021/12/08 00:50:05;;;;;;;41.03;23.77;;;26.40;2201.60;;;;;;5018722;28;20076;-71
2021/12/08 00:52:31;;;;;;;46.35;25.70;;;26.40;2201.60;;;;;;5011833;28;20030;-72
2021/12/08 00:54:58;;;;;;;40.33;24.13;;;26.40;2201.60;;;;;;5012190;28;20026;-72
2021/12/08 00:57:24;;;;;;;45.08;25.65;;;26.40;2201.60;;;;;;5011576;28;20030;-72
2021/12/08 00:59:50;;;;;;;45.40;26.33;;;26.40;2201.60;;;;;;5011724;28;20432;-72
2021/12/08 01:02:16;;;;;;;49.08;26.50;;;26.40;2201.60;;;;;;5026850;28;20034;-72
2021/12/08 01:04:42;;;;;;;50.88;26.75;;;26.40;2201.60;;;;;;5029957;28;20049;-71
2021/12/08 01:07:08;;;;;;;49.42;24.40;;;26.40;2201.60;;;;;;5030555;28;20030;-72
2021/12/08 01:09:34;;;;;;;47.58;26.08;;;26.50;2201.60;;;;;;5032618;28;20052;-72
2021/12/08 01:12:02;;;;;;;46.38;27.88;;;26.50;2201.60;;;;;;5034008;28;20473;-72
2021/12/08 01:14:34;;;;;;;48.83;27.15;;;26.50;2201.60;;;;;;5034955;28;20469;-72
2021/12/08 01:17:01;;;;;;;48.03;26.55;;;51.20;2227.20;;;;;;5034995;28;20021;-72
2021/12/08 01:19:27;;;;;;;42.95;25.98;;;51.20;2227.20;;;;;;5033399;28;20098;-72
2021/12/08 01:21:53;;;;;;;43.35;24.20;;;51.20;2227.20;;;;;;5033544;28;20030;-72
2021/12/08 01:24:19;;;;;;;47.45;24.88;;;51.20;2227.20;;;;;;5034314;28;20468;-72
2021/12/08 01:26:46;;;;;;;40.58;23.75;;;51.20;2227.20;;;;;;5034223;28;20021;-72
2021/12/08 01:29:12;;;;;;;44.75;25.75;;;51.20;2227.20;;;;;;5032628;28;20041;-71
2021/12/08 01:31:41;;;;;;;47.10;24.33;;;51.30;2227.20;;;;;;5032995;28;20025;-72
2021/12/08 01:34:08;;;;;;;45.60;26.60;;;51.30;2227.20;;;;;;5034508;28;20100;-72
2021/12/08 01:36:36;;;;;;;44.00;24.40;;;51.30;2227.20;;;;;;5034187;28;20467;-72
2021/12/08 01:39:03;;;;;;;48.17;26.70;;;51.30;2227.20;;;;;;5034468;28;20032;-72
2021/12/08 01:41:29;;;;;;;45.63;25.58;;;51.40;2227.20;;;;;;5034296;28;20083;-72
2021/12/08 01:46:39;;;;;;;43.88;25.38;;;51.40;2227.20;;;;;;5035024;28;20031;-72
2021/12/08 01:49:05;;;;;;;43.50;25.02;;;51.40;2227.20;;;;;;5034333;28;20100;-72
2021/12/08 01:51:31;;;;;;;39.80;23.80;;;51.40;2227.20;;;;;;5034341;28;20029;-72
2021/12/08 01:54:00;;;;;;;47.28;27.27;;;51.50;2227.20;;;;;;5032556;28;20025;-73
2021/12/08 01:56:26;;;;;;;44.95;24.98;;;51.40;2227.20;;;;;;5032970;28;20033;-72
2021/12/08 01:58:52;;;;;;;50.15;26.60;;;51.30;2227.20;;;;;;5032863;28;20052;-72
2021/12/08 02:01:21;;;;;;;43.22;24.77;;;51.30;2227.20;;;;;;5030940;28;20059;-72
2021/12/08 02:03:47;;;;;;;42.40;24.98;;;51.30;2227.20;;;;;;5030520;28;20848;-73
2021/12/08 02:06:15;;;;;;;41.97;24.52;;;51.40;2227.20;;;;;;5032166;28;20116;-72
2021/12/08 02:08:42;;;;;;;43.40;24.80;;;51.40;2227.20;;;;;;5032609;28;20124;-72
2021/12/08 02:11:08;;;;;;;41.83;24.92;;;51.40;2227.20;;;;;;5030843;28;20038;-72
2021/12/08 02:13:38;;;;;;;42.92;25.58;;;51.30;2227.20;;;;;;5031032;28;20036;-72
2021/12/08 02:16:10;;;;;;;43.67;26.80;;;51.20;2227.20;;;;;;5014038;28;20025;-72
2021/12/08 02:18:37;;;;;;;41.08;24.45;;;51.20;2227.20;;;;;;5032118;28;20031;-72
2021/12/08 02:21:05;;;;;;;44.60;23.88;;;51.20;2227.20;;;;;;5032637;28;20105;-71
2021/12/08 02:23:31;;;;;;;47.90;24.73;;;51.20;2227.20;;;;;;5015761;28;20033;-71
2021/12/08 02:25:58;;;;;;;49.67;24.23;;;51.20;2227.20;;;;;;5034197;28;20030;-72
2021/12/08 02:28:24;;;;;;;48.40;27.00;;;51.20;2227.20;;;;;;5015735;28;20132;-72
2021/12/08 02:30:59;;;;;;;45.67;25.63;;;51.30;2227.20;;;;;;5033833;28;20079;-72
2021/12/08 02:47:18;;;;;;;44.20;24.00;;;51.20;2227.20;;;;;;5033571;28;19912;-72
2021/12/08 02:49:44;;;;;;;46.42;24.10;;;51.20;2227.20;;;;;;5004553;28;20472;-73
2021/12/08 02:52:13;;;;;;;54.55;25.85;;;51.30;2227.20;;;;;;5012079;28;20029;-72
2021/12/08 02:54:44;;;;;;;47.85;25.67;;;51.40;2227.20;;;;;;5013685;28;20026;-73
2021/12/08 02:57:12;;;;;;;42.45;23.83;;;51.30;2227.20;;;;;;5013087;28;20077;-73
2021/12/08 02:59:40;;;;;;;46.38;25.88;;;51.20;2227.20;;;;;;5012093;28;20377;-73
2021/12/08 03:02:06;;;;;;;44.88;24.73;;;26.50;2201.60;;;;;;5013435;28;20036;-73
2021/12/08 03:04:32;;;;;;;42.83;24.15;;;26.50;2201.60;;;;;;5012946;28;20433;-73
2021/12/08 03:06:58;;;;;;;44.50;26.48;;;26.50;2201.60;;;;;;5012121;28;20026;-73
2021/12/08 03:09:24;;;;;;;45.13;26.38;;;26.40;2201.60;;;;;;5011814;28;20037;-74
2021/12/08 03:11:53;;;;;;;52.20;26.98;;;26.40;2201.60;;;;;;5013220;28;20092;-73
2021/12/08 03:14:20;;;;;;;44.47;23.95;;;26.30;2201.60;;;;;;5011378;28;20412;-74
2021/12/08 03:16:49;;;;;;;50.50;26.73;;;26.30;2201.60;;;;;;5013202;28;20026;-73
2021/12/08 03:19:17;;;;;;;48.45;28.25;;;26.20;2201.60;;;;;;5010729;28;20044;-73
2021/12/08 03:21:43;;;;;;;45.17;26.95;;;26.20;2201.60;;;;;;5012250;28;20030;-73
2021/12/08 03:29:25;;;;;;;47.08;26.50;;;26.00;2201.60;;;;;;5012918;28;20026;-74
2021/12/08 03:31:54;;;;;;;46.70;26.40;;;26.00;2201.60;;;;;;5011150;28;20045;-74
2021/12/08 03:34:22;;;;;;;44.80;24.35;;;26.00;2201.60;;;;;;5011722;28;20033;-73
2021/12/08 03:36:48;;;;;;;47.28;27.27;;;26.00;2201.60;;;;;;5012946;28;20549;-74
2021/12/08 03:39:14;;;;;;;46.28;25.42;;;25.90;2201.60;;;;;;5012584;28;20108;-73
2021/12/08 03:41:40;;;;;;;50.78;27.83;;;25.90;2201.60;;;;;;5011581;28;20469;-75
2021/12/08 03:44:06;;;;;;;48.00;25.50;;;25.90;2201.60;;;;;;5012251;28;20026;-73
2021/12/08 03:46:39;;;;;;;47.65;25.23;;;25.90;2201.60;;;;;;5012942;28;20030;-73
2021/12/08 03:49:09;;;;;;;45.28;25.70;;;25.80;2201.60;;;;;;5010643;28;20184;-72
2021/12/08 03:51:35;;;;;;;53.72;29.33;;;25.80;2201.60;;;;;;5012332;28;20746;-74
2021/12/08 03:54:01;;;;;;;47.40;24.85;;;25.80;2201.60;;;;;;5012778;28;20054;-73
2021/12/08 03:56:27;;;;;;;48.65;26.13;;;25.80;2201.60;;;;;;5010999;28;20030;-72
2021/12/08 03:58:52;;;;;;;55.70;27.75;;;25.80;2201.60;;;;;;5012535;28;20397;-73
2021/12/08 04:01:18;;;;;;;47.00;25.15;;;25.80;2201.60;;;;;;5024788;28;20041;-72
2021/12/08 04:03:49;;;;;;;52.53;25.33;;;25.90;2201.60;;;;;;5030793;28;20046;-73
2021/12/08 04:06:39;;;;;;;53.25;26.45;;;25.90;2201.60;;;;;;5030201;28;20036;-72
2021/12/08 04:09:13;;;;;;;49.13;26.00;;;25.90;2201.60;;;;;;5030477;28;20029;-72
2021/12/08 04:11:39;;;;;;;57.85;29.50;;;25.80;2201.60;;;;;;5032248;28;20515;-72
2021/12/08 04:14:09;;;;;;;52.50;27.33;;;25.80;2201.60;;;;;;5031730;28;20025;-72
2021/12/08 04:16:41;;;;;;;47.78;28.05;;;25.80;2201.60;;;;;;5030929;28;20037;-72
2021/12/08 04:19:08;;;;;;;49.40;27.05;;;25.70;2201.60;;;;;;5030474;28;20032;-72
2021/12/08 04:21:36;;;;;;;48.03;29.10;;;25.60;2201.60;;;;;;5030495;28;20028;-72
2021/12/08 04:24:02;;;;;;;48.40;28.17;;;25.60;2201.60;;;;;;5030312;28;20515;-72
2021/12/08 04:26:55;;;;;;;51.58;28.15;;;25.60;2201.60;;;;;;5031790;28;20468;-72
2021/12/08 04:29:25;;;;;;;51.80;29.35;;;25.60;2201.60;;;;;;5029525;28;20037;-72
2021/12/08 04:31:52;;;;;;;49.63;25.90;;;25.60;2201.60;;;;;;5029563;28;20880;-71
2021/12/08 04:34:25;;;;;;;52.72;28.23;;;25.70;2201.60;;;;;;5021776;28;20095;-72
2021/12/08 04:36:54;;;;;;;53.85;30.48;;;25.70;2201.60;;;;;;5030226;28;20152;-71
2021/12/08 04:39:42;;;;;;;52.40;27.60;;;25.70;2201.60;;;;;;5013655;28;20061;-71
2021/12/08 04:42:13;;;;;;;57.97;30.98;;;25.60;2201.60;;;;;;5031376;28;20021;-73
2021/12/08 04:44:49;;;;;;;53.17;27.23;;;25.60;2201.60;;;;;;5031821;28;20468;-72
2021/12/08 05:04:31;;;;;;;60.08;30.92;;;0.80;2201.60;;;;;;4935583;28;20047;-72
2021/12/08 05:09:34;;;;;;;49.85;26.98;;;0.80;2201.60;;;;;;4935700;29;20027;-71
2021/12/08 05:12:08;;;;;;;65.40;32.60;;;0.80;2201.60;;;;;;4935325;28;20028;-72
2021/12/08 05:14:45;;;;;;;57.35;30.30;;;0.80;2201.60;;;;;;4931756;29;20083;-71
2021/12/08 05:17:16;;;;;;;73.15;37.30;;;0.80;2201.60;;;;;;4935496;29;20050;-71
2021/12/08 05:19:45;;;;;;;77.93;39.60;;;0.80;2201.60;;;;;;4935138;29;20199;-71
2021/12/08 05:22:21;;;;;;;75.30;38.95;;;0.80;2201.60;;;;;;4935149;29;20566;-71
2021/12/08 05:24:50;;;;;;;60.75;34.35;;;0.80;2201.60;;;;;;4937540;28;20032;-71
2021/12/08 05:27:18;;;;;;;63.08;34.88;;;0.80;2201.60;;;;;;4987785;28;20023;-71
2021/12/08 05:29:52;;;;;;;60.63;33.67;;;0.70;2201.60;;;;;;5013429;28;20029;-71
2021/12/08 05:32:19;;;;;;;59.90;30.13;;;0.80;2201.60;;;;;;5031397;28;20508;-71
2021/12/08 05:34:46;;;;;;;60.83;31.92;;;0.70;2201.60;;;;;;5040296;28;20391;-71
2021/12/08 05:37:16;;;;;;;55.65;30.90;;;0.80;2201.60;;;;;;5051885;28;20025;-71
2021/12/08 05:39:42;;;;;;;53.13;29.48;;;0.80;2201.60;;;;;;5054806;28;20107;-71
2021/12/08 05:42:14;;;;;;;63.28;29.33;;;0.80;2201.60;;;;;;5054447;28;20104;-71
2021/12/08 05:44:41;;;;;;;55.42;31.10;;;0.80;2201.60;;;;;;5053380;28;20033;-71
2021/12/08 05:47:15;;;;;;;59.30;30.67;;;0.70;2201.60;;;;;;5036329;28;20017;-71
2021/12/08 05:49:41;;;;;;;69.28;36.88;;;0.70;2201.60;;;;;;5054360;28;20017;-71
2021/12/08 05:52:07;;;;;;;78.05;41.28;;;0.70;2201.60;;;;;;5054479;28;20032;-71
2021/12/08 05:54:40;;;;;;;65.15;34.40;;;0.80;2201.60;;;;;;5053953;28;20052;-71
2021/12/08 05:57:17;;;;;;;65.22;36.63;;;0.70;2201.60;;;;;;5044533;28;20115;-71
2021/12/08 05:59:44;;;;;;;113.20;52.40;;;0.80;2201.60;;;;;;5043073;28;20068;-70
2021/12/08 06:02:30;;;;;;;94.30;47.90;;;0.70;2201.60;;;;;;5039396;28;20037;-71
2021/12/08 06:04:58;;;;;;;84.32;45.40;;;0.70;2201.60;;;;;;5042264;28;20052;-71
2021/12/08 06:07:23;;;;;;;83.78;41.90;;;0.70;2201.60;;;;;;5044068;28;20033;-71
2021/12/08 06:09:59;;;;;;;91.78;45.17;;;0.70;2201.60;;;;;;5021888;28;20025;-71
2021/12/08 06:12:25;;;;;;;74.00;40.63;;;0.70;2201.60;;;;;;5039995;28;20021;-71
2021/12/08 06:14:55;;;;;;;302.17;139.95;;;0.80;2201.60;;;;;;5033351;28;20349;-71
2021/12/08 06:17:24;;;;;;;182.10;83.20;;;0.70;2201.60;;;;;;5034217;28;20117;-71
2021/12/08 06:19:52;;;;;;;194.73;88.00;;;0.70;2201.60;;;;;;5041452;28;20112;-71
2021/12/08 06:22:19;;;;;;;234.43;104.55;;;0.60;2201.60;;;;;;5035777;28;20037;-71
2021/12/08 06:24:46;;;;;;;185.30;86.40;;;0.70;2201.60;;;;;;5037669;28;20034;-71
2021/12/08 06:27:12;;;;;;;132.45;67.53;;;0.80;2201.60;;;;;;5032222;28;20481;-71
2021/12/08 06:29:39;;;;;;;93.45;46.92;;;0.80;2201.60;;;;;;5028067;28;20038;-72
2021/12/08 06:32:07;;;;;;;75.30;39.90;;;0.80;2201.60;;;;;;4999681;28;20459;-71
2021/12/08 06:34:34;;;;;;;74.57;40.20;;;0.80;2201.60;;;;;;5012408;28;20037;-72
2021/12/08 06:37:08;;;;;;;69.47;37.65;;;0.80;2201.60;;;;;;5032731;28;20090;-71
2021/12/08 06:39:43;;;;;;;75.47;41.40;;;0.80;2201.60;;;;;;5035147;28;20034;-72
2021/12/08 06:42:13;;;;;;;90.38;45.72;;;0.90;2201.60;;;;;;5016936;28;20032;-72
2021/12/08 06:44:41;;;;;;;75.13;43.22;;;0.90;2201.60;;;;;;5041972;28;20028;-73
2021/12/08 06:47:11;;;;;;;85.88;47.70;;;25.60;2201.60;;;;;;5043623;28;20024;-72
2021/12/08 06:49:37;;;;;;;79.55;42.33;;;25.60;2201.60;;;;;;5037515;28;20507;-72
2021/12/08 06:52:08;;;;;;;73.95;42.22;;;25.60;2201.60;;;;;;5043605;28;20032;-72
2021/12/08 06:54:53;;;;;;;85.35;48.33;;;25.60;2201.60;;;;;;5043630;28;20026;-71
2021/12/08 06:57:29;;;;;;;89.93;47.25;;;25.60;2201.60;;;;;;5037891;28;20373;-72
2021/12/08 07:00:04;;;;;;;73.85;41.25;;;25.60;2201.60;;;;;;5019007;28;20116;-72
2021/12/08 07:03:03;;;;;;;66.15;39.30;;;25.70;2201.60;;;;;;5045041;28;20171;-71
2021/12/08 07:05:42;;;;;;;67.72;36.15;;;25.80;2201.60;;;;;;5033077;28;20044;-72
2021/12/08 07:08:09;;;;;;;70.35;39.10;;;25.90;2201.60;;;;;;5024893;28;20174;-72
2021/12/08 07:10:39;;;;;;;63.70;35.70;;;25.80;2201.60;;;;;;5042204;28;20028;-71
2021/12/08 07:13:09;;;;;;;68.35;37.03;;;25.80;2201.60;;;;;;5040976;28;20037;-71
2021/12/08 07:15:45;;;;;;;87.45;46.25;;;25.80;2201.60;;;;;;5042730;28;20057;-72
2021/12/08 07:18:25;;;;;;;78.20;42.85;;;25.80;2201.60;;;;;;5037148;28;20091;-72
2021/12/08 07:20:59;;;;;;;73.57;41.30;;;25.80;2201.60;;;;;;5024670;28;20400;-72
2021/12/08 07:23:36;;;;;;;64.43;37.08;;;25.80;2201.60;;;;;;5046555;28;20024;-72
2021/12/08 07:26:11;;;;;;;75.32;38.33;;;25.80;2201.60;;;;;;5036647;28;21083;-72
2021/12/08 07:28:39;;;;;;;74.93;41.30;;;25.90;2201.60;;;;;;5041242;28;20045;-72
2021/12/08 07:31:10;;;;;;;70.20;39.20;;;26.00;2201.60;;;;;;5020882;28;20037;-72
2021/12/08 07:33:36;;;;;;;69.78;43.50;;;26.00;2201.60;;;;;;5036767;28;20131;-72
2021/12/08 07:36:06;;;;;;;84.25;44.25;;;26.10;2201.60;;;;;;5023944;28;20032;-71
2021/12/08 07:38:33;;;;;;;63.65;38.30;;;26.10;2201.60;;;;;;5040081;28;20037;-72
2021/12/08 07:41:10;;;;;;;66.43;35.78;;;26.10;2201.60;;;;;;5034130;28;20041;-71
2021/12/08 07:43:40;;;;;;;63.10;37.30;;;26.20;2201.60;;;;;;5033072;28;20028;-72
2021/12/08 07:46:11;;;;;;;66.88;38.03;;;26.20;2201.60;;;;;;5040706;28;20092;-73
2021/12/08 07:48:53;;;;;;;67.80;38.42;;;26.30;2201.60;;;;;;5043417;28;20021;-74
2021/12/08 07:51:34;;;;;;;60.70;36.13;;;26.30;2201.60;;;;;;5037825;28;20393;-73
2021/12/08 07:54:01;;;;;;;58.30;33.55;;;26.40;2201.60;;;;;;5023912;28;20484;-72
2021/12/08 07:56:32;;;;;;;54.47;32.92;;;26.40;2201.60;;;;;;5042847;28;20383;-72
2021/12/08 07:59:02;;;;;;;59.08;32.05;;;26.50;2201.60;;;;;;5037269;28;20025;-72
2021/12/08 08:01:35;;;;;;;54.25;33.10;;;51.20;2227.20;;;;;;5041051;28;20029;-74
2021/12/08 08:04:04;;;;;;;65.45;37.58;;;51.20;2227.20;;;;;;5040447;28;20132;-71
2021/12/08 08:06:35;;;;;;;71.90;38.53;;;51.30;2227.20;;;;;;5039480;28;20055;-72
2021/12/08 08:10:54;;;;;;;49.63;26.90;;;51.30;2227.20;;;;;;5049550;28;20430;-72
2021/12/08 08:13:21;;;;;;;57.60;34.05;;;51.50;2227.20;;;;;;5047654;28;20029;-71
2021/12/08 08:15:51;;;;;;;59.55;33.20;;;51.60;2227.20;;;;;;5048702;28;20494;-72
2021/12/08 08:18:23;;;;;;;50.65;29.67;;;51.70;2227.20;;;;;;5046224;28;20101;-72
2021/12/08 08:20:52;;;;;;;55.50;28.40;;;51.70;2227.20;;;;;;5047417;28;20518;-72
2021/12/08 08:23:21;;;;;;;53.55;30.15;;;51.70;2227.20;;;;;;5046463;28;20447;-72
2021/12/08 08:25:48;;;;;;;54.28;30.90;;;51.80;2227.20;;;;;;5048315;28;20029;-70
2021/12/08 08:28:16;;;;;;;58.58;32.55;;;51.90;2227.20;;;;;;5048452;28;20025;-70
2021/12/08 08:30:49;;;;;;;50.78;32.20;;;52.00;2227.20;;;;;;5048378;28;20025;-71
2021/12/08 08:33:15;;;;;;;69.20;35.45;;;51.90;2227.20;;;;;;5048653;28;20535;-71
2021/12/08 08:35:52;;;;;;;56.38;32.40;;;52.00;2227.20;;;;;;5048401;28;20104;-70
2021/12/08 08:38:27;;;;;;;49.70;29.95;;;52.10;2227.20;;;;;;5048164;28;20052;-70
2021/12/08 08:40:57;;;;;;;45.40;28.30;;;76.80;2227.20;;;;;;5048599;28;20022;-70
2021/12/08 08:43:24;;;;;;;50.10;30.13;;;76.90;2227.20;;;;;;5048241;28;20063;-72
2021/12/08 08:45:58;;;;;;;54.60;31.83;;;76.90;2227.20;;;;;;5048426;28;20052;-72
2021/12/08 08:48:32;;;;;;;48.50;28.00;;;76.90;2227.20;;;;;;5063773;28;20071;-70
2021/12/08 08:51:21;;;;;;;51.97;28.52;;;77.00;2227.20;;;;;;5031701;28;20021;-70
2021/12/08 08:53:50;;;;;;;51.33;29.23;;;77.10;2227.20;;;;;;5031402;28;20486;-70
2021/12/08 08:56:28;;;;;;;55.67;30.40;;;77.20;2227.20;;;;;;5048015;28;20067;-70
2021/12/08 08:59:01;;;;;;;52.33;31.15;;;77.30;2227.20;;;;;;5046342;28;20430;-71
2021/12/08 09:01:34;;;;;;;45.45;29.73;;;77.50;2227.20;;;;;;5045417;28;20036;-70
2021/12/08 09:04:11;;;;;;;52.72;29.35;;;77.70;2227.20;;;;;;5047657;28;20427;-70
2021/12/08 09:06:44;;;;;;;53.15;31.63;;;102.60;2227.20;;;;;;5046461;28;20061;-70
2021/12/08 09:09:15;;;;;;;51.60;29.77;;;102.70;2227.20;;;;;;5046413;28;20049;-70
2021/12/08 09:11:47;;;;;;;45.25;28.70;;;102.90;2227.20;;;;;;5047583;28;20091;-71
2021/12/08 09:14:37;;;;;;;47.80;28.38;;;103.20;2227.20;;;;;;5074051;28;20650;-70
2021/12/08 09:17:16;;;;;;;46.92;28.85;;;128.00;2252.80;;;;;;5044826;28;20424;-70
2021/12/08 09:19:47;;;;;;;44.15;27.55;;;128.10;2252.80;;;;;;5046423;28;20396;-72
2021/12/08 09:22:32;;;;;;;48.65;28.63;;;128.20;2252.80;;;;;;5034106;28;20108;-72
2021/12/08 09:25:13;;;;;;;49.30;30.20;;;128.70;2252.80;;;;;;5021198;28;20033;-71
2021/12/08 09:27:52;;;;;;;60.00;35.50;;;153.60;2252.80;;;;;;5064268;28;20032;-72
2021/12/08 09:30:33;;;;;;;46.15;28.25;;;153.90;2252.80;;;;;;5032306;28;20041;-72
2021/12/08 09:33:07;;;;;;;46.33;27.77;;;154.10;2252.80;;;;;;5065743;28;20022;-73
2021/12/08 09:35:44;;;;;;;53.78;30.30;;;153.80;2252.80;;;;;;5033544;28;20555;-73
2021/12/08 09:38:28;;;;;;;45.28;29.48;;;154.10;2252.80;;;;;;5030973;28;20473;-73
2021/12/08 09:41:17;;;;;;;51.58;31.80;;;154.10;2252.80;;;;;;5033042;28;20037;-73
2021/12/08 09:43:51;;;;;;;52.03;32.58;;;154.40;2252.80;;;;;;5034226;28;20079;-73
2021/12/08 09:46:39;;;;;;;54.15;34.05;;;179.40;2252.80;;;;;;5033148;28;20460;-72
2021/12/08 09:49:06;;;;;;;49.00;29.77;;;179.20;2252.80;;;;;;5031761;28;20523;-73
2021/12/08 09:51:33;;;;;;;57.58;31.65;;;179.40;2252.80;;;;;;5033057;28;20030;-73
2021/12/08 09:53:59;;;;;;;61.05;32.90;;;179.40;2252.80;;;;;;5033532;28;20025;-72
2021/12/08 09:56:29;;;;;;;70.55;41.35;;;179.50;2252.80;;;;;;5033896;28;20017;-72
2021/12/08 09:58:56;;;;;;;50.75;30.83;;;179.50;2252.80;;;;;;5032942;28;20021;-71
2021/12/08 10:01:23;;;;;;;60.10;34.03;;;179.30;2252.80;;;;;;5033529;28;20053;-72
2021/12/08 10:03:52;;;;;;;53.78;33.33;;;179.70;2252.80;;;;;;5031803;28;20037;-72
2021/12/08 10:06:21;;;;;;;47.03;30.40;;;179.70;2252.80;;;;;;5031826;28;20029;-72
2021/12/08 10:08:48;;;;;;;54.85;32.47;;;179.70;2252.80;;;;;;5032987;28;20104;-73
2021/12/08 10:11:15;;;;;;;49.05;29.55;;;179.80;2252.80;;;;;;5033257;28;20466;-73
2021/12/08 10:13:41;;;;;;;46.33;29.00;;;179.60;2252.80;;;;;;5033145;28;20381;-72
2021/12/08 10:16:08;;;;;;;50.72;30.67;;;179.70;2252.80;;;;;;5033112;28;20107;-72
2021/12/08 10:18:34;;;;;;;48.88;28.95;;;180.00;2252.80;;;;;;5033649;28;20542;-72
2021/12/08 10:21:00;;;;;;;53.78;31.98;;;180.10;2252.80;;;;;;5032978;28;20056;-73
2021/12/08 10:23:34;;;;;;;50.92;33.63;;;180.00;2252.80;;;;;;5033129;28;20048;-72
2021/12/08 10:26:03;;;;;;;44.92;29.23;;;204.90;2252.80;;;;;;5031894;28;20392;-71
2021/12/08 10:28:35;;;;;;;46.55;27.90;;;204.90;2252.80;;;;;;5033230;28;20036;-72
2021/12/08 10:31:27;;;;;;;40.35;28.40;;;205.20;2252.80;;;;;;5033208;28;20108;-71
2021/12/08 10:37:01;;;;;;;53.90;30.10;;;205.30;2252.80;;;;;;5032979;28;20034;-71
2021/12/08 10:39:37;;;;;;;42.92;26.27;;;205.20;2252.80;;;;;;5031440;28;20063;-71
2021/12/08 10:42:09;;;;;;;49.53;31.33;;;205.10;2252.80;;;;;;5033497;28;20021;-71
2021/12/08 10:45:00;;;;;;;50.92;29.67;;;205.20;2252.80;;;;;;5031969;28;20017;-71
2021/12/08 10:47:38;;;;;;;50.10;31.10;;;205.70;2252.80;;;;;;5021072;28;20037;-72
2021/12/08 10:55:59;;;;;;;48.55;28.63;;;256.30;2252.80;;;;;;5012587;28;20105;-71
2021/12/08 10:58:39;;;;;;;51.92;30.60;;;231.00;2252.80;;;;;;5012950;28;20469;-72
2021/12/08 11:01:15;;;;;;;48.47;30.92;;;230.60;2252.80;;;;;;5031627;28;20095;-72
2021/12/08 11:03:41;;;;;;;47.97;28.83;;;230.70;2252.80;;;;;;5031509;28;20523;-71
2021/12/08 11:06:07;;;;;;;49.47;29.88;;;230.60;2252.80;;;;;;5033461;28;20033;-71
2021/12/08 11:08:44;;;;;;;52.58;28.33;;;230.50;2252.80;;;;;;5031968;28;20065;-72
2021/12/08 11:11:23;;;;;;;42.10;26.67;;;230.70;2252.80;;;;;;5032542;28;20057;-72
2021/12/08 11:13:58;;;;;;;39.08;26.13;;;231.00;2252.80;;;;;;5028512;28;20033;-72
2021/12/08 11:16:27;;;;;;;45.47;28.50;;;231.20;2252.80;;;;;;5012839;28;20026;-72
2021/12/08 11:19:15;;;;;;;44.47;29.73;;;231.00;2252.80;;;;;;5017769;28;20052;-72
2021/12/08 11:21:50;;;;;;;43.13;26.25;;;231.10;2252.80;;;;;;5029788;28;20032;-72
2021/12/08 11:27:36;;;;;;;43.30;26.23;;;231.10;2252.80;;;;;;5028707;28;20080;-72
2021/12/08 11:30:16;;;;;;;47.47;32.97;;;256.20;2252.80;;;;;;5028961;28;20021;-73
2021/12/08 11:32:43;;;;;;;49.83;32.30;;;256.50;2252.80;;;;;;5029636;28;20044;-72
2021/12/08 11:35:19;;;;;;;40.67;26.85;;;256.80;2252.80;;;;;;5029018;28;20376;-72
2021/12/08 11:37:58;;;;;;;42.17;27.40;;;281.60;2278.40;;;;;;5029063;28;20044;-73
2021/12/08 11:40:23;;;;;;;42.30;28.02;;;256.80;2252.80;;;;;;5029968;28;20038;-72
2021/12/08 11:42:50;;;;;;;44.20;28.67;;;256.50;2252.80;;;;;;5028749;28;20075;-72
2021/12/08 11:45:18;;;;;;;46.38;29.70;;;256.60;2252.80;;;;;;5010051;28;20057;-72
2021/12/08 11:47:44;;;;;;;46.75;27.17;;;282.10;2278.40;;;;;;5029500;28;20044;-72
2021/12/08 11:50:15;;;;;;;41.88;27.00;;;282.10;2278.40;;;;;;5012864;28;20527;-72
2021/12/08 11:52:41;;;;;;;44.58;26.98;;;282.50;2278.40;;;;;;5029429;28;20036;-72
2021/12/08 11:55:18;;;;;;;42.65;26.48;;;307.40;2304.00;;;;;;5029100;28;20033;-72
2021/12/08 11:57:51;;;;;;;51.58;27.38;;;282.20;2278.40;;;;;;5029829;28;20670;-72
2021/12/08 12:00:21;;;;;;;41.03;25.35;;;256.60;2252.80;;;;;;5029165;28;20022;-72
2021/12/08 12:02:54;;;;;;;40.78;26.20;;;282.00;2278.40;;;;;;5029539;28;20060;-72
2021/12/08 12:05:33;;;;;;;43.17;25.38;;;282.30;2278.40;;;;;;5029275;28;20037;-72
2021/12/08 12:07:59;;;;;;;43.45;25.33;;;307.50;2304.00;;;;;;5030930;28;20029;-72
2021/12/08 12:10:30;;;;;;;47.20;27.20;;;307.50;2304.00;;;;;;5029949;28;20214;-72
2021/12/08 12:12:57;;;;;;;38.55;25.65;;;307.90;2304.00;;;;;;5031153;28;20021;-72
2021/12/08 12:15:25;;;;;;;34.97;26.77;;;307.80;2304.00;;;;;;5029978;28;20029;-72
2021/12/08 12:17:51;;;;;;;49.90;28.27;;;308.00;2304.00;;;;;;5030629;28;20468;-71
2021/12/08 12:20:43;;;;;;;47.00;29.52;;;307.80;2304.00;;;;;;5031161;28;20071;-71
2021/12/08 12:23:20;;;;;;;46.22;28.13;;;307.70;2304.00;;;;;;5030397;28;20140;-71
2021/12/08 12:25:52;;;;;;;43.20;27.25;;;307.40;2304.00;;;;;;5028649;28;20079;-71
2021/12/08 12:28:36;;;;;;;47.63;30.65;;;307.70;2304.00;;;;;;5030581;28;20024;-71
2021/12/08 12:31:22;;;;;;;41.67;27.48;;;307.20;2304.00;;;;;;5030457;28;20053;-71
2021/12/08 12:33:50;;;;;;;45.20;27.98;;;256.90;2252.80;;;;;;5030631;28;20057;-72
2021/12/08 12:36:27;;;;;;;50.63;29.63;;;256.70;2252.80;;;;;;5030272;28;20021;-71
2021/12/08 12:39:16;;;;;;;40.33;27.73;;;282.00;2278.40;;;;;;5029930;28;20104;-71
2021/12/08 12:41:43;;;;;;;42.50;28.17;;;282.30;2278.40;;;;;;5030348;28;20013;-71
2021/12/08 12:44:14;;;;;;;42.22;27.33;;;307.20;2304.00;;;;;;5030254;28;20037;-71
2021/12/08 12:47:12;;;;;;;39.88;28.10;;;307.30;2304.00;;;;;;5025563;28;20021;-70
2021/12/08 12:49:48;;;;;;;52.25;32.22;;;282.50;2278.40;;;;;;5040426;28;20776;-70
2021/12/08 12:52:16;;;;;;;47.20;31.15;;;282.30;2278.40;;;;;;5029253;28;20017;-70
2021/12/08 12:54:43;;;;;;;46.13;30.25;;;282.50;2278.40;;;;;;5029378;28;20048;-70
2021/12/08 12:57:10;;;;;;;61.72;44.00;;;282.10;2278.40;;;;;;5032269;28;20049;-70
2021/12/08 12:59:52;;;;;;;48.40;30.92;;;282.10;2278.40;;;;;;5030123;28;20022;-70
2021/12/08 13:02:26;;;;;;;49.63;30.20;;;281.90;2278.40;;;;;;5031444;28;20017;-70
2021/12/08 13:05:00;;;;;;;50.03;31.27;;;281.90;2278.40;;;;;;5031180;28;20081;-70
2021/12/08 13:07:28;;;;;;;41.90;28.40;;;282.10;2278.40;;;;;;5031082;28;20045;-70
2021/12/08 13:10:06;;;;;;;43.05;26.70;;;281.90;2278.40;;;;;;5026018;28;20045;-70
2021/12/08 13:12:35;;;;;;;43.72;28.30;;;281.80;2278.40;;;;;;5032012;28;20112;-70
2021/12/08 13:15:19;;;;;;;43.85;30.05;;;281.60;2278.40;;;;;;5032556;28;20013;-70
2021/12/08 13:18:07;;;;;;;48.08;30.08;;;256.80;2252.80;;;;;;5031219;28;20017;-70
2021/12/08 13:20:54;;;;;;;42.08;27.75;;;256.90;2252.80;;;;;;5033759;28;20025;-70
2021/12/08 13:23:22;;;;;;;43.78;28.05;;;256.60;2252.80;;;;;;5030881;28;20029;-70
2021/12/08 13:26:07;;;;;;;55.25;33.13;;;256.40;2252.80;;;;;;5031546;28;20022;-70
2021/12/08 13:28:46;;;;;;;49.45;28.95;;;256.30;2252.80;;;;;;5030883;28;20072;-70